sensor_id;sensor_type;location;lat;lon;timestamp;temperature;humidity
53422;DHT22;39319;52.944;5.928;2022-10-16T00:01:38;13.10;99.90
53422;DHT22;39319;52.944;5.928;2022-10-16T00:04:05;13.10;99.90
53422;DHT22;39319;52.944;5.928;2022-10-16T00:06:31;13.10;99.90
53422;DHT22;39319;52.944;5.928;2022-10-16T00:08:57;13.10;99.90
53422;DHT22;39319;52.944;5.928;2022-10-16T00:11:29;13.10;99.90
53422;DHT22;39319;52.944;5.928;2022-10-16T00:13:57;13.10;99.90
53422;DHT22;39319;52.944;5.928;2022-10-16T00:16:23;13.10;99.90
53422;DHT22;39319;52.944;5.928;2022-10-16T00:18:49;13.10;99.90
53422;DHT22;39319;52.944;5.928;2022-10-16T00:21:17;13.10;99.90
53422;DHT22;39319;52.944;5.928;2022-10-16T00:23:43;13.20;99.90
53422;DHT22;39319;52.944;5.928;2022-10-16T00:26:13;13.10;99.90
53422;DHT22;39319;52.944;5.928;2022-10-16T00:28:39;13.20;99.90
53422;DHT22;39319;52.944;5.928;2022-10-16T00:31:07;13.20;99.90
53422;DHT22;39319;52.944;5.928;2022-10-16T00:33:34;13.20;99.90
53422;DHT22;39319;52.944;5.928;2022-10-16T00:36:01;13.20;99.90
53422;DHT22;39319;52.944;5.928;2022-10-16T00:38:27;13.20;99.90
53422;DHT22;39319;52.944;5.928;2022-10-16T00:40:53;13.20;99.90
53422;DHT22;39319;52.944;5.928;2022-10-16T00:49:09;13.30;99.90
53422;DHT22;39319;52.944;5.928;2022-10-16T00:51:41;13.30;99.90
53422;DHT22;39319;52.944;5.928;2022-10-16T00:54:11;13.30;99.90
53422;DHT22;39319;52.944;5.928;2022-10-16T00:56:39;13.30;99.90
53422;DHT22;39319;52.944;5.928;2022-10-16T00:59:12;13.30;99.90
53422;DHT22;39319;52.944;5.928;2022-10-16T01:01:39;13.30;99.90
53422;DHT22;39319;52.944;5.928;2022-10-16T01:04:05;13.40;99.90
53422;DHT22;39319;52.944;5.928;2022-10-16T01:12:01;13.40;99.90
53422;DHT22;39319;52.944;5.928;2022-10-16T01:14:43;13.40;99.90
53422;DHT22;39319;52.944;5.928;2022-10-16T01:17:18;13.30;99.90
53422;DHT22;39319;52.944;5.928;2022-10-16T01:20:06;13.40;99.90
53422;DHT22;39319;52.944;5.928;2022-10-16T01:22:59;13.40;99.90
53422;DHT22;39319;52.944;5.928;2022-10-16T01:25:53;13.40;99.90
53422;DHT22;39319;52.944;5.928;2022-10-16T01:28:26;13.40;99.90
53422;DHT22;39319;52.944;5.928;2022-10-16T01:30:56;13.40;99.90
53422;DHT22;39319;52.944;5.928;2022-10-16T01:33:40;13.40;99.90
53422;DHT22;39319;52.944;5.928;2022-10-16T01:36:14;13.40;99.90
53422;DHT22;39319;52.944;5.928;2022-10-16T01:38:43;13.40;99.90
53422;DHT22;39319;52.944;5.928;2022-10-16T01:41:36;13.40;99.90
53422;DHT22;39319;52.944;5.928;2022-10-16T01:44:30;13.40;99.90
53422;DHT22;39319;52.944;5.928;2022-10-16T01:46:55;13.50;99.90
53422;DHT22;39319;52.944;5.928;2022-10-16T01:49:24;13.40;99.90
53422;DHT22;39319;52.944;5.928;2022-10-16T01:51:54;13.40;99.90
53422;DHT22;39319;52.944;5.928;2022-10-16T01:54:23;13.40;99.90
53422;DHT22;39319;52.944;5.928;2022-10-16T01:56:51;13.50;99.90
53422;DHT22;39319;52.944;5.928;2022-10-16T01:59:19;13.50;99.90
53422;DHT22;39319;52.944;5.928;2022-10-16T02:01:52;13.40;99.90
53422;DHT22;39319;52.944;5.928;2022-10-16T02:07:18;13.40;99.90
53422;DHT22;39319;52.944;5.928;2022-10-16T02:09:44;13.40;99.90
53422;DHT22;39319;52.944;5.928;2022-10-16T02:12:33;13.40;99.90
53422;DHT22;39319;52.944;5.928;2022-10-16T02:15:00;13.40;99.90
53422;DHT22;39319;52.944;5.928;2022-10-16T02:17:26;13.40;99.90
53422;DHT22;39319;52.944;5.928;2022-10-16T02:19:56;13.50;99.90
53422;DHT22;39319;52.944;5.928;2022-10-16T02:25:02;13.40;99.90
53422;DHT22;39319;52.944;5.928;2022-10-16T02:32:35;13.40;99.90
53422;DHT22;39319;52.944;5.928;2022-10-16T02:35:03;13.30;99.90
53422;DHT22;39319;52.944;5.928;2022-10-16T02:37:29;13.30;99.90
53422;DHT22;39319;52.944;5.928;2022-10-16T02:39:57;13.30;99.90
53422;DHT22;39319;52.944;5.928;2022-10-16T02:42:29;13.30;99.90
53422;DHT22;39319;52.944;5.928;2022-10-16T02:44:55;13.30;99.90
53422;DHT22;39319;52.944;5.928;2022-10-16T02:47:21;13.30;99.90
53422;DHT22;39319;52.944;5.928;2022-10-16T02:49:47;13.30;99.90
53422;DHT22;39319;52.944;5.928;2022-10-16T02:52:15;13.30;99.90
53422;DHT22;39319;52.944;5.928;2022-10-16T02:54:42;13.20;99.90
53422;DHT22;39319;52.944;5.928;2022-10-16T02:57:08;13.20;99.90
53422;DHT22;39319;52.944;5.928;2022-10-16T02:59:34;13.20;99.90
53422;DHT22;39319;52.944;5.928;2022-10-16T03:02:00;13.20;99.90
53422;DHT22;39319;52.944;5.928;2022-10-16T03:04:26;13.20;99.90
53422;DHT22;39319;52.944;5.928;2022-10-16T03:06:51;13.20;99.90
53422;DHT22;39319;52.944;5.928;2022-10-16T03:09:17;13.20;99.90
53422;DHT22;39319;52.944;5.928;2022-10-16T03:11:42;13.20;99.90
53422;DHT22;39319;52.944;5.928;2022-10-16T03:14:08;13.20;99.90
53422;DHT22;39319;52.944;5.928;2022-10-16T03:16:34;13.20;99.90
53422;DHT22;39319;52.944;5.928;2022-10-16T03:19:00;13.20;99.90
53422;DHT22;39319;52.944;5.928;2022-10-16T03:21:26;13.10;99.90
53422;DHT22;39319;52.944;5.928;2022-10-16T03:23:52;13.10;99.90
53422;DHT22;39319;52.944;5.928;2022-10-16T03:26:17;13.10;99.90
53422;DHT22;39319;52.944;5.928;2022-10-16T03:28:43;13.10;99.90
53422;DHT22;39319;52.944;5.928;2022-10-16T03:31:09;13.10;99.90
53422;DHT22;39319;52.944;5.928;2022-10-16T03:33:35;13.10;99.90
53422;DHT22;39319;52.944;5.928;2022-10-16T03:36:01;13.10;99.90
53422;DHT22;39319;52.944;5.928;2022-10-16T03:38:27;13.10;99.90
53422;DHT22;39319;52.944;5.928;2022-10-16T03:40:53;13.10;99.90
53422;DHT22;39319;52.944;5.928;2022-10-16T03:43:19;13.10;99.90
53422;DHT22;39319;52.944;5.928;2022-10-16T03:45:46;13.10;99.90
53422;DHT22;39319;52.944;5.928;2022-10-16T03:48:12;13.10;99.90
53422;DHT22;39319;52.944;5.928;2022-10-16T03:50:37;13.10;99.90
53422;DHT22;39319;52.944;5.928;2022-10-16T03:53:04;13.10;99.90
53422;DHT22;39319;52.944;5.928;2022-10-16T03:55:29;13.10;99.90
53422;DHT22;39319;52.944;5.928;2022-10-16T03:57:55;13.10;99.90
53422;DHT22;39319;52.944;5.928;2022-10-16T04:00:21;13.20;99.90
53422;DHT22;39319;52.944;5.928;2022-10-16T04:02:47;13.10;99.90
53422;DHT22;39319;52.944;5.928;2022-10-16T04:05:14;13.10;99.90
53422;DHT22;39319;52.944;5.928;2022-10-16T04:07:40;13.20;99.90
53422;DHT22;39319;52.944;5.928;2022-10-16T04:10:06;13.20;99.90
53422;DHT22;39319;52.944;5.928;2022-10-16T04:12:31;13.20;99.90
53422;DHT22;39319;52.944;5.928;2022-10-16T04:14:57;13.20;99.90
53422;DHT22;39319;52.944;5.928;2022-10-16T04:17:23;13.20;99.90
53422;DHT22;39319;52.944;5.928;2022-10-16T04:19:49;13.30;99.90
53422;DHT22;39319;52.944;5.928;2022-10-16T04:22:15;13.20;99.90
53422;DHT22;39319;52.944;5.928;2022-10-16T04:24:41;13.30;99.90
53422;DHT22;39319;52.944;5.928;2022-10-16T04:27:09;13.30;99.90
53422;DHT22;39319;52.944;5.928;2022-10-16T04:29:35;13.30;99.90
53422;DHT22;39319;52.944;5.928;2022-10-16T04:32:01;13.40;99.90
53422;DHT22;39319;52.944;5.928;2022-10-16T04:34:27;13.40;99.90
53422;DHT22;39319;52.944;5.928;2022-10-16T04:36:53;13.50;99.90
53422;DHT22;39319;52.944;5.928;2022-10-16T04:39:22;13.30;99.90
53422;DHT22;39319;52.944;5.928;2022-10-16T04:41:48;13.30;99.90
53422;DHT22;39319;52.944;5.928;2022-10-16T04:44:14;13.40;99.90
53422;DHT22;39319;52.944;5.928;2022-10-16T04:46:40;13.30;99.90
53422;DHT22;39319;52.944;5.928;2022-10-16T04:49:06;13.30;99.90
53422;DHT22;39319;52.944;5.928;2022-10-16T04:51:31;13.30;99.90
53422;DHT22;39319;52.944;5.928;2022-10-16T04:53:57;13.30;99.90
53422;DHT22;39319;52.944;5.928;2022-10-16T04:56:23;13.30;99.90
53422;DHT22;39319;52.944;5.928;2022-10-16T04:58:50;13.30;99.90
53422;DHT22;39319;52.944;5.928;2022-10-16T05:01:16;13.30;99.90
53422;DHT22;39319;52.944;5.928;2022-10-16T05:03:42;13.40;99.90
53422;DHT22;39319;52.944;5.928;2022-10-16T05:06:08;13.30;99.90
53422;DHT22;39319;52.944;5.928;2022-10-16T05:08:34;13.30;99.90
53422;DHT22;39319;52.944;5.928;2022-10-16T05:11:00;13.40;99.90
53422;DHT22;39319;52.944;5.928;2022-10-16T05:13:27;13.30;99.90
53422;DHT22;39319;52.944;5.928;2022-10-16T05:15:53;13.30;99.90
53422;DHT22;39319;52.944;5.928;2022-10-16T05:18:19;13.30;99.90
53422;DHT22;39319;52.944;5.928;2022-10-16T05:20:45;13.40;99.90
53422;DHT22;39319;52.944;5.928;2022-10-16T05:23:11;13.40;99.90
53422;DHT22;39319;52.944;5.928;2022-10-16T05:25:37;13.40;99.90
53422;DHT22;39319;52.944;5.928;2022-10-16T05:28:03;13.40;99.90
53422;DHT22;39319;52.944;5.928;2022-10-16T05:30:29;13.30;99.90
53422;DHT22;39319;52.944;5.928;2022-10-16T05:32:54;13.40;99.90
53422;DHT22;39319;52.944;5.928;2022-10-16T05:35:21;13.30;99.90
53422;DHT22;39319;52.944;5.928;2022-10-16T05:37:47;13.40;99.90
53422;DHT22;39319;52.944;5.928;2022-10-16T05:40:13;13.40;99.90
53422;DHT22;39319;52.944;5.928;2022-10-16T05:42:40;13.40;99.90
53422;DHT22;39319;52.944;5.928;2022-10-16T05:45:07;13.40;99.90
53422;DHT22;39319;52.944;5.928;2022-10-16T05:47:34;13.40;99.90
53422;DHT22;39319;52.944;5.928;2022-10-16T05:50:00;13.40;99.90
53422;DHT22;39319;52.944;5.928;2022-10-16T05:52:27;13.40;99.90
53422;DHT22;39319;52.944;5.928;2022-10-16T05:54:53;13.40;99.90
53422;DHT22;39319;52.944;5.928;2022-10-16T05:57:18;13.40;99.90
53422;DHT22;39319;52.944;5.928;2022-10-16T05:59:44;13.40;99.90
53422;DHT22;39319;52.944;5.928;2022-10-16T06:02:13;13.50;99.90
53422;DHT22;39319;52.944;5.928;2022-10-16T06:04:41;13.40;99.90
53422;DHT22;39319;52.944;5.928;2022-10-16T06:07:07;13.50;99.90
53422;DHT22;39319;52.944;5.928;2022-10-16T06:09:32;13.50;99.90
53422;DHT22;39319;52.944;5.928;2022-10-16T06:11:59;13.50;99.90
53422;DHT22;39319;52.944;5.928;2022-10-16T06:14:24;13.50;99.90
53422;DHT22;39319;52.944;5.928;2022-10-16T06:16:52;13.40;99.90
53422;DHT22;39319;52.944;5.928;2022-10-16T06:19:18;13.40;99.90
53422;DHT22;39319;52.944;5.928;2022-10-16T06:21:44;13.50;99.90
53422;DHT22;39319;52.944;5.928;2022-10-16T06:24:10;13.50;99.90
53422;DHT22;39319;52.944;5.928;2022-10-16T06:26:36;13.50;99.90
53422;DHT22;39319;52.944;5.928;2022-10-16T06:29:02;13.50;99.90
53422;DHT22;39319;52.944;5.928;2022-10-16T06:31:28;13.50;99.90
53422;DHT22;39319;52.944;5.928;2022-10-16T06:33:57;13.50;99.90
53422;DHT22;39319;52.944;5.928;2022-10-16T06:36:24;13.50;99.90
53422;DHT22;39319;52.944;5.928;2022-10-16T06:38:50;13.50;99.90
53422;DHT22;39319;52.944;5.928;2022-10-16T06:41:22;13.50;99.90
53422;DHT22;39319;52.944;5.928;2022-10-16T06:43:48;13.50;99.90
53422;DHT22;39319;52.944;5.928;2022-10-16T06:46:16;13.50;99.90
53422;DHT22;39319;52.944;5.928;2022-10-16T06:48:43;13.50;99.90
53422;DHT22;39319;52.944;5.928;2022-10-16T06:51:16;13.50;99.90
53422;DHT22;39319;52.944;5.928;2022-10-16T06:53:46;13.50;99.90
53422;DHT22;39319;52.944;5.928;2022-10-16T06:56:25;13.50;99.90
53422;DHT22;39319;52.944;5.928;2022-10-16T06:58:51;13.50;99.90
53422;DHT22;39319;52.944;5.928;2022-10-16T07:01:20;13.50;99.90
53422;DHT22;39319;52.944;5.928;2022-10-16T07:03:46;13.50;99.90
53422;DHT22;39319;52.944;5.928;2022-10-16T07:06:15;13.50;99.90
53422;DHT22;39319;52.944;5.928;2022-10-16T07:08:42;13.50;99.90
53422;DHT22;39319;52.944;5.928;2022-10-16T07:11:10;13.50;99.90
53422;DHT22;39319;52.944;5.928;2022-10-16T07:13:37;13.50;99.90
53422;DHT22;39319;52.944;5.928;2022-10-16T07:16:15;13.60;99.90
53422;DHT22;39319;52.944;5.928;2022-10-16T07:18:42;13.50;99.90
53422;DHT22;39319;52.944;5.928;2022-10-16T07:21:16;13.60;99.90
53422;DHT22;39319;52.944;5.928;2022-10-16T07:23:42;13.60;99.90
53422;DHT22;39319;52.944;5.928;2022-10-16T07:26:09;13.60;99.90
53422;DHT22;39319;52.944;5.928;2022-10-16T07:28:35;13.60;99.90
53422;DHT22;39319;52.944;5.928;2022-10-16T07:31:06;13.50;99.90
53422;DHT22;39319;52.944;5.928;2022-10-16T07:33:33;13.70;99.90
53422;DHT22;39319;52.944;5.928;2022-10-16T07:35:59;13.70;99.90
53422;DHT22;39319;52.944;5.928;2022-10-16T07:38:25;13.70;99.90
53422;DHT22;39319;52.944;5.928;2022-10-16T07:41:06;13.70;99.90
53422;DHT22;39319;52.944;5.928;2022-10-16T07:43:32;13.80;99.90
53422;DHT22;39319;52.944;5.928;2022-10-16T07:45:58;13.80;99.90
53422;DHT22;39319;52.944;5.928;2022-10-16T07:48:26;13.80;99.90
53422;DHT22;39319;52.944;5.928;2022-10-16T07:50:52;13.80;99.90
53422;DHT22;39319;52.944;5.928;2022-10-16T07:53:17;13.90;99.90
53422;DHT22;39319;52.944;5.928;2022-10-16T07:55:43;13.90;99.90
53422;DHT22;39319;52.944;5.928;2022-10-16T07:58:09;13.90;99.90
53422;DHT22;39319;52.944;5.928;2022-10-16T08:00:36;13.90;99.90
53422;DHT22;39319;52.944;5.928;2022-10-16T08:03:02;14.00;99.90
53422;DHT22;39319;52.944;5.928;2022-10-16T08:05:29;13.90;99.90
53422;DHT22;39319;52.944;5.928;2022-10-16T08:07:55;14.00;99.90
53422;DHT22;39319;52.944;5.928;2022-10-16T08:10:23;14.00;99.90
53422;DHT22;39319;52.944;5.928;2022-10-16T08:12:49;14.00;99.90
53422;DHT22;39319;52.944;5.928;2022-10-16T08:15:15;14.00;99.90
53422;DHT22;39319;52.944;5.928;2022-10-16T08:17:41;14.00;99.90
53422;DHT22;39319;52.944;5.928;2022-10-16T08:20:09;14.10;99.90
53422;DHT22;39319;52.944;5.928;2022-10-16T08:22:35;14.10;99.90
53422;DHT22;39319;52.944;5.928;2022-10-16T08:25:01;14.10;99.90
53422;DHT22;39319;52.944;5.928;2022-10-16T08:27:33;14.10;99.90
53422;DHT22;39319;52.944;5.928;2022-10-16T08:29:59;14.10;99.90
53422;DHT22;39319;52.944;5.928;2022-10-16T08:32:25;14.20;99.90
53422;DHT22;39319;52.944;5.928;2022-10-16T08:34:53;14.20;99.90
53422;DHT22;39319;52.944;5.928;2022-10-16T08:37:20;14.20;99.90
53422;DHT22;39319;52.944;5.928;2022-10-16T08:39:45;14.20;99.90
53422;DHT22;39319;52.944;5.928;2022-10-16T08:42:21;14.30;99.90
53422;DHT22;39319;52.944;5.928;2022-10-16T08:47:54;14.40;99.90
53422;DHT22;39319;52.944;5.928;2022-10-16T08:50:27;14.40;99.90
53422;DHT22;39319;52.944;5.928;2022-10-16T08:52:54;14.50;99.90
53422;DHT22;39319;52.944;5.928;2022-10-16T08:55:38;14.60;99.90
53422;DHT22;39319;52.944;5.928;2022-10-16T08:58:15;14.70;99.90
53422;DHT22;39319;52.944;5.928;2022-10-16T09:00:43;14.70;99.90
53422;DHT22;39319;52.944;5.928;2022-10-16T09:03:24;14.70;99.90
53422;DHT22;39319;52.944;5.928;2022-10-16T09:08:32;14.70;99.90
53422;DHT22;39319;52.944;5.928;2022-10-16T09:11:13;14.80;99.90
53422;DHT22;39319;52.944;5.928;2022-10-16T09:19:13;14.90;99.90
53422;DHT22;39319;52.944;5.928;2022-10-16T09:21:42;14.90;99.90
53422;DHT22;39319;52.944;5.928;2022-10-16T09:24:17;15.00;99.90
53422;DHT22;39319;52.944;5.928;2022-10-16T09:26:44;15.00;99.90
53422;DHT22;39319;52.944;5.928;2022-10-16T09:29:13;15.00;99.90
53422;DHT22;39319;52.944;5.928;2022-10-16T09:31:39;15.10;99.90
53422;DHT22;39319;52.944;5.928;2022-10-16T09:34:05;15.10;99.90
53422;DHT22;39319;52.944;5.928;2022-10-16T09:36:40;15.10;99.90
53422;DHT22;39319;52.944;5.928;2022-10-16T09:39:09;15.10;99.90
53422;DHT22;39319;52.944;5.928;2022-10-16T09:41:42;15.10;99.90
53422;DHT22;39319;52.944;5.928;2022-10-16T09:44:23;15.10;99.90
53422;DHT22;39319;52.944;5.928;2022-10-16T09:47:04;15.20;99.90
53422;DHT22;39319;52.944;5.928;2022-10-16T09:49:30;15.20;99.90
53422;DHT22;39319;52.944;5.928;2022-10-16T09:52:11;15.20;99.90
53422;DHT22;39319;52.944;5.928;2022-10-16T09:54:49;15.20;99.90
53422;DHT22;39319;52.944;5.928;2022-10-16T09:57:15;15.20;99.90
53422;DHT22;39319;52.944;5.928;2022-10-16T09:59:54;15.20;99.90
53422;DHT22;39319;52.944;5.928;2022-10-16T10:02:33;15.30;99.90
53422;DHT22;39319;52.944;5.928;2022-10-16T10:05:00;15.30;99.90
53422;DHT22;39319;52.944;5.928;2022-10-16T10:07:31;15.30;99.90
53422;DHT22;39319;52.944;5.928;2022-10-16T10:10:03;15.30;99.90
53422;DHT22;39319;52.944;5.928;2022-10-16T10:12:31;15.40;99.90
53422;DHT22;39319;52.944;5.928;2022-10-16T10:15:11;15.40;99.90
53422;DHT22;39319;52.944;5.928;2022-10-16T10:17:48;15.60;99.90
53422;DHT22;39319;52.944;5.928;2022-10-16T10:20:34;15.60;99.90
53422;DHT22;39319;52.944;5.928;2022-10-16T10:23:22;15.70;99.90
53422;DHT22;39319;52.944;5.928;2022-10-16T10:31:13;16.40;99.90
53422;DHT22;39319;52.944;5.928;2022-10-16T10:37:25;17.10;99.90
53422;DHT22;39319;52.944;5.928;2022-10-16T10:39:30;17.50;99.90
53422;DHT22;39319;52.944;5.928;2022-10-16T11:01:55;19.20;96.30
53422;DHT22;39319;52.944;5.928;2022-10-16T11:07:04;19.40;94.90
53422;DHT22;39319;52.944;5.928;2022-10-16T11:09:41;19.60;93.80
53422;DHT22;39319;52.944;5.928;2022-10-16T11:14:38;19.80;93.50
53422;DHT22;39319;52.944;5.928;2022-10-16T11:23:04;20.30;92.20
53422;DHT22;39319;52.944;5.928;2022-10-16T11:25:33;20.40;91.90
53422;DHT22;39319;52.944;5.928;2022-10-16T11:28:03;20.50;92.30
53422;DHT22;39319;52.944;5.928;2022-10-16T11:30:55;20.80;91.80
53422;DHT22;39319;52.944;5.928;2022-10-16T11:33:54;20.90;91.40
53422;DHT22;39319;52.944;5.928;2022-10-16T11:36:42;21.20;91.20
53422;DHT22;39319;52.944;5.928;2022-10-16T11:41:49;21.40;90.40
53422;DHT22;39319;52.944;5.928;2022-10-16T11:49:36;21.60;87.70
53422;DHT22;39319;52.944;5.928;2022-10-16T11:55:12;21.70;89.00
53422;DHT22;39319;52.944;5.928;2022-10-16T12:03:42;22.00;86.50
53422;DHT22;39319;52.944;5.928;2022-10-16T12:06:34;22.10;85.50
53422;DHT22;39319;52.944;5.928;2022-10-16T12:09:02;22.00;85.50
53422;DHT22;39319;52.944;5.928;2022-10-16T12:19:41;22.50;85.60
53422;DHT22;39319;52.944;5.928;2022-10-16T12:22:16;22.60;83.80
53422;DHT22;39319;52.944;5.928;2022-10-16T12:24:43;22.70;84.10
53422;DHT22;39319;52.944;5.928;2022-10-16T12:27:28;22.60;83.70
53422;DHT22;39319;52.944;5.928;2022-10-16T12:29:59;22.70;83.20
53422;DHT22;39319;52.944;5.928;2022-10-16T12:32:32;22.70;82.00
53422;DHT22;39319;52.944;5.928;2022-10-16T12:35:00;22.80;82.10
53422;DHT22;39319;52.944;5.928;2022-10-16T12:37:31;22.70;81.80
53422;DHT22;39319;52.944;5.928;2022-10-16T12:39:59;22.80;81.70
53422;DHT22;39319;52.944;5.928;2022-10-16T12:42:37;22.90;81.30
53422;DHT22;39319;52.944;5.928;2022-10-16T12:45:29;22.90;81.80
53422;DHT22;39319;52.944;5.928;2022-10-16T12:47:57;22.80;80.50
53422;DHT22;39319;52.944;5.928;2022-10-16T12:50:37;22.90;80.90
53422;DHT22;39319;52.944;5.928;2022-10-16T12:53:24;23.00;80.00
53422;DHT22;39319;52.944;5.928;2022-10-16T12:58:30;23.20;79.60
53422;DHT22;39319;52.944;5.928;2022-10-16T13:01:10;23.10;78.80
53422;DHT22;39319;52.944;5.928;2022-10-16T13:15:15;23.10;79.70
53422;DHT22;39319;52.944;5.928;2022-10-16T13:18:12;23.10;79.30
53422;DHT22;39319;52.944;5.928;2022-10-16T13:21:00;23.10;79.00
53422;DHT22;39319;52.944;5.928;2022-10-16T13:26:39;23.20;78.10
53422;DHT22;39319;52.944;5.928;2022-10-16T13:29:06;23.20;79.10
53422;DHT22;39319;52.944;5.928;2022-10-16T13:31:32;23.30;78.20
53422;DHT22;39319;52.944;5.928;2022-10-16T13:34:00;23.30;78.80
53422;DHT22;39319;52.944;5.928;2022-10-16T13:36:29;23.20;78.80
53422;DHT22;39319;52.944;5.928;2022-10-16T13:39:10;23.20;78.50
53422;DHT22;39319;52.944;5.928;2022-10-16T13:41:37;23.00;78.50
53422;DHT22;39319;52.944;5.928;2022-10-16T13:44:03;23.00;79.00
53422;DHT22;39319;52.944;5.928;2022-10-16T13:46:30;22.90;77.20
53422;DHT22;39319;52.944;5.928;2022-10-16T13:49:05;22.70;77.60
53422;DHT22;39319;52.944;5.928;2022-10-16T13:51:32;22.50;79.10
53422;DHT22;39319;52.944;5.928;2022-10-16T13:53:58;22.40;80.00
53422;DHT22;39319;52.944;5.928;2022-10-16T13:56:31;22.40;78.50
53422;DHT22;39319;52.944;5.928;2022-10-16T13:59:06;22.30;79.50
53422;DHT22;39319;52.944;5.928;2022-10-16T14:01:35;22.30;79.40
53422;DHT22;39319;52.944;5.928;2022-10-16T14:04:08;22.30;79.90
53422;DHT22;39319;52.944;5.928;2022-10-16T14:06:35;22.30;79.00
53422;DHT22;39319;52.944;5.928;2022-10-16T14:09:12;22.30;79.00
53422;DHT22;39319;52.944;5.928;2022-10-16T14:11:48;22.30;79.40
53422;DHT22;39319;52.944;5.928;2022-10-16T14:14:15;22.20;80.00
53422;DHT22;39319;52.944;5.928;2022-10-16T14:16:42;22.00;80.90
53422;DHT22;39319;52.944;5.928;2022-10-16T14:19:35;21.80;81.80
53422;DHT22;39319;52.944;5.928;2022-10-16T14:22:01;21.70;80.50
53422;DHT22;39319;52.944;5.928;2022-10-16T14:24:33;21.50;80.70
53422;DHT22;39319;52.944;5.928;2022-10-16T14:26:59;21.30;81.50
53422;DHT22;39319;52.944;5.928;2022-10-16T14:29:26;21.30;81.00
53422;DHT22;39319;52.944;5.928;2022-10-16T14:32:04;21.20;80.50
53422;DHT22;39319;52.944;5.928;2022-10-16T14:34:37;21.00;81.10
53422;DHT22;39319;52.944;5.928;2022-10-16T14:37:16;20.90;82.70
53422;DHT22;39319;52.944;5.928;2022-10-16T14:39:51;20.80;82.60
53422;DHT22;39319;52.944;5.928;2022-10-16T14:42:20;20.60;84.30
53422;DHT22;39319;52.944;5.928;2022-10-16T14:44:48;20.50;84.50
53422;DHT22;39319;52.944;5.928;2022-10-16T14:47:20;20.40;86.00
53422;DHT22;39319;52.944;5.928;2022-10-16T14:49:50;20.20;85.90
53422;DHT22;39319;52.944;5.928;2022-10-16T14:52:16;20.10;87.30
53422;DHT22;39319;52.944;5.928;2022-10-16T14:54:42;20.00;87.00
53422;DHT22;39319;52.944;5.928;2022-10-16T14:57:34;19.90;89.00
53422;DHT22;39319;52.944;5.928;2022-10-16T15:00:01;19.80;89.70
53422;DHT22;39319;52.944;5.928;2022-10-16T15:02:33;19.70;89.70
53422;DHT22;39319;52.944;5.928;2022-10-16T15:05:24;19.60;90.50
53422;DHT22;39319;52.944;5.928;2022-10-16T15:07:52;19.50;90.60
53422;DHT22;39319;52.944;5.928;2022-10-16T15:10:20;19.40;91.20
53422;DHT22;39319;52.944;5.928;2022-10-16T15:12:47;19.30;91.50
53422;DHT22;39319;52.944;5.928;2022-10-16T15:15:25;19.20;91.30
53422;DHT22;39319;52.944;5.928;2022-10-16T15:17:54;19.20;91.90
53422;DHT22;39319;52.944;5.928;2022-10-16T15:20:24;19.10;91.90
53422;DHT22;39319;52.944;5.928;2022-10-16T15:22:50;19.00;92.40
53422;DHT22;39319;52.944;5.928;2022-10-16T15:25:57;18.90;92.30
53422;DHT22;39319;52.944;5.928;2022-10-16T15:28:24;18.80;91.60
53422;DHT22;39319;52.944;5.928;2022-10-16T15:30:52;18.80;92.70
53422;DHT22;39319;52.944;5.928;2022-10-16T15:33:21;18.70;92.50
53422;DHT22;39319;52.944;5.928;2022-10-16T15:35:51;18.60;92.80
53422;DHT22;39319;52.944;5.928;2022-10-16T15:38:19;18.50;93.00
53422;DHT22;39319;52.944;5.928;2022-10-16T15:40:46;18.40;93.10
53422;DHT22;39319;52.944;5.928;2022-10-16T15:43:12;18.40;93.20
53422;DHT22;39319;52.944;5.928;2022-10-16T15:45:38;18.30;93.40
53422;DHT22;39319;52.944;5.928;2022-10-16T15:48:04;18.20;93.70
53422;DHT22;39319;52.944;5.928;2022-10-16T15:50:30;18.10;94.10
53422;DHT22;39319;52.944;5.928;2022-10-16T15:52:56;18.00;94.30
53422;DHT22;39319;52.944;5.928;2022-10-16T15:55:23;17.90;94.50
53422;DHT22;39319;52.944;5.928;2022-10-16T15:57:48;17.80;94.60
53422;DHT22;39319;52.944;5.928;2022-10-16T16:00:17;17.70;95.20
53422;DHT22;39319;52.944;5.928;2022-10-16T16:02:48;17.60;95.30
53422;DHT22;39319;52.944;5.928;2022-10-16T16:05:14;17.60;95.40
53422;DHT22;39319;52.944;5.928;2022-10-16T16:07:40;17.50;95.50
53422;DHT22;39319;52.944;5.928;2022-10-16T16:10:18;17.50;95.60
53422;DHT22;39319;52.944;5.928;2022-10-16T16:12:55;17.30;95.60
53422;DHT22;39319;52.944;5.928;2022-10-16T16:15:22;17.30;95.70
53422;DHT22;39319;52.944;5.928;2022-10-16T16:17:49;17.20;95.70
53422;DHT22;39319;52.944;5.928;2022-10-16T16:20:15;17.10;96.00
53422;DHT22;39319;52.944;5.928;2022-10-16T16:22:41;17.10;96.00
53422;DHT22;39319;52.944;5.928;2022-10-16T16:25:07;17.00;96.00
53422;DHT22;39319;52.944;5.928;2022-10-16T16:27:33;16.90;96.20
53422;DHT22;39319;52.944;5.928;2022-10-16T16:30:00;16.80;96.20
53422;DHT22;39319;52.944;5.928;2022-10-16T16:32:26;16.80;96.60
53422;DHT22;39319;52.944;5.928;2022-10-16T16:34:52;16.70;96.50
53422;DHT22;39319;52.944;5.928;2022-10-16T16:37:18;16.60;96.50
53422;DHT22;39319;52.944;5.928;2022-10-16T16:39:44;16.60;96.50
53422;DHT22;39319;52.944;5.928;2022-10-16T16:42:09;16.50;96.50
53422;DHT22;39319;52.944;5.928;2022-10-16T16:44:36;16.40;96.60
53422;DHT22;39319;52.944;5.928;2022-10-16T16:47:02;16.40;96.70
53422;DHT22;39319;52.944;5.928;2022-10-16T16:49:28;16.30;96.80
53422;DHT22;39319;52.944;5.928;2022-10-16T16:51:54;16.30;96.90
53422;DHT22;39319;52.944;5.928;2022-10-16T16:54:20;16.20;96.90
53422;DHT22;39319;52.944;5.928;2022-10-16T16:56:46;16.20;97.10
53422;DHT22;39319;52.944;5.928;2022-10-16T16:59:17;16.10;97.10
53422;DHT22;39319;52.944;5.928;2022-10-16T17:01:43;16.00;97.10
53422;DHT22;39319;52.944;5.928;2022-10-16T17:04:09;16.00;97.10
53422;DHT22;39319;52.944;5.928;2022-10-16T17:06:38;15.90;97.00
53422;DHT22;39319;52.944;5.928;2022-10-16T17:09:05;15.80;97.00
53422;DHT22;39319;52.944;5.928;2022-10-16T17:11:32;15.70;97.20
53422;DHT22;39319;52.944;5.928;2022-10-16T17:13:59;15.70;97.40
53422;DHT22;39319;52.944;5.928;2022-10-16T17:16:28;15.70;97.60
53422;DHT22;39319;52.944;5.928;2022-10-16T17:18:55;15.60;97.60
53422;DHT22;39319;52.944;5.928;2022-10-16T17:21:20;15.60;97.80
53422;DHT22;39319;52.944;5.928;2022-10-16T17:23:47;15.50;97.90
53422;DHT22;39319;52.944;5.928;2022-10-16T17:26:16;15.50;98.00
53422;DHT22;39319;52.944;5.928;2022-10-16T17:28:42;15.50;98.10
53422;DHT22;39319;52.944;5.928;2022-10-16T17:31:15;15.50;98.10
53422;DHT22;39319;52.944;5.928;2022-10-16T17:33:42;15.40;98.20
53422;DHT22;39319;52.944;5.928;2022-10-16T17:36:08;15.40;98.30
53422;DHT22;39319;52.944;5.928;2022-10-16T17:38:35;15.40;98.30
53422;DHT22;39319;52.944;5.928;2022-10-16T17:43:37;15.30;98.40